Time;durP1;ratioP1;P1;durP2;ratioP2;P2;SDS_P1;SDS_P2;PMS_P1;PMS_P2;Temp;Humidity;BMP_temperature;BMP_pressure;BME280_temperature;BME280_humidity;BME280_pressure;Samples;Min_cycle;Max_cycle;Signal;HPM_P1;HPM_P2
2022/05/01 00:01:54;;;;;;;;;;;;;;;13.92;58.10;99925.34;4902084;29;19934;-64
2022/05/01 00:04:23;;;;;;;;;;;;;;;13.96;57.63;99921.06;4901677;29;19930;-64
2022/05/01 00:06:51;;;;;;;;;;;;;;;13.96;57.25;99915.94;4901595;29;19972;-65
2022/05/01 00:09:20;;;;;;;;;;;;;;;13.96;57.35;99918.50;4901785;29;20279;-65
2022/05/01 00:11:49;;;;;;;;;;;;;;;13.95;57.70;99921.91;4901735;29;19923;-65
2022/05/01 00:14:18;;;;;;;;;;;;;;;13.96;56.96;99921.06;4901563;29;20330;-64
2022/05/01 00:16:49;;;;;;;;;;;;;;;13.99;56.65;99915.88;4884759;29;20429;-65
2022/05/01 00:19:17;;;;;;;;;;;;;;;13.99;56.88;99921.84;4901385;29;19923;-65
2022/05/01 00:22:06;;;;;;;;;;;;;;;13.98;56.44;99916.75;4901221;29;19931;-65
2022/05/01 00:24:35;;;;;;;;;;;;;;;13.97;56.42;99917.59;4901598;29;19924;-65
2022/05/01 00:27:05;;;;;;;;;;;;;;;13.97;56.87;99923.59;4901275;29;20275;-65
2022/05/01 00:29:33;;;;;;;;;;;;;;;13.97;57.13;99918.47;4901771;29;20366;-64
2022/05/01 00:32:04;;;;;;;;;;;;;;;13.99;56.81;99921.84;4901619;29;19923;-64
2022/05/01 00:37:12;;;;;;;;;;;;;;;13.87;57.64;99914.28;4901887;29;19975;-64
2022/05/01 00:39:40;;;;;;;;;;;;;;;13.85;57.50;99917.72;4901016;29;19973;-65
2022/05/01 00:42:09;;;;;;;;;;;;;;;13.87;57.70;99916.00;4900853;29;19979;-64
2022/05/01 00:44:39;;;;;;;;;;;;;;;13.87;57.69;99921.13;4901167;29;20286;-65
2022/05/01 00:47:09;;;;;;;;;;;;;;;13.88;57.46;99923.69;4900868;29;19963;-65
2022/05/01 00:49:37;;;;;;;;;;;;;;;13.86;57.72;99922.00;4900846;29;19923;-65
2022/05/01 00:52:09;;;;;;;;;;;;;;;13.84;57.71;99922.03;4901080;29;20027;-65
2022/05/01 00:54:39;;;;;;;;;;;;;;;13.83;57.62;99924.59;4900798;29;19924;-65
2022/05/01 00:57:08;;;;;;;;;;;;;;;13.79;57.59;99922.94;4900728;29;20009;-64
2022/05/01 00:59:41;;;;;;;;;;;;;;;13.77;57.67;99929.81;4901013;29;19947;-65
2022/05/01 01:02:12;;;;;;;;;;;;;;;13.75;58.04;99921.28;4900826;29;20410;-65
2022/05/01 01:04:41;;;;;;;;;;;;;;;13.75;57.99;99921.28;4900685;29;20370;-64
2022/05/01 01:07:09;;;;;;;;;;;;;;;13.77;57.84;99924.69;4900517;29;19924;-65
2022/05/01 01:09:38;;;;;;;;;;;;;;;13.75;57.70;99923.84;4900819;29;19927;-64
2022/05/01 01:14:59;;;;;;;;;;;;;;;13.74;57.62;99917.84;4900401;29;20381;-65
2022/05/01 01:17:28;;;;;;;;;;;;;;;13.73;57.64;99922.97;4900661;29;19924;-65
2022/05/01 01:19:57;;;;;;;;;;;;;;;13.71;57.65;99927.28;4901222;29;19924;-65
2022/05/01 01:22:28;;;;;;;;;;;;;;;13.68;57.69;99929.88;4900327;29;19971;-65
2022/05/01 01:24:56;;;;;;;;;;;;;;;13.68;57.64;99927.31;4900504;29;19979;-64
2022/05/01 01:27:26;;;;;;;;;;;;;;;13.69;57.47;99926.44;4900491;29;19979;-64
2022/05/01 01:32:39;;;;;;;;;;;;;;;13.62;58.04;99923.09;4900330;29;19991;-65
2022/05/01 01:35:10;;;;;;;;;;;;;;;13.60;58.16;99924.84;4899094;29;20022;-65
2022/05/01 01:37:44;;;;;;;;;;;;;;;13.59;58.59;99922.25;4900083;29;20370;-65
2022/05/01 01:40:13;;;;;;;;;;;;;;;13.60;59.22;99921.41;4900239;29;20313;-65
2022/05/01 01:42:42;;;;;;;;;;;;;;;13.56;59.19;99919.72;4899754;29;19923;-65
2022/05/01 01:45:11;;;;;;;;;;;;;;;13.54;59.67;99916.31;4899715;29;20006;-65
2022/05/01 01:47:42;;;;;;;;;;;;;;;13.54;59.73;99914.63;4900079;29;19924;-65
2022/05/01 01:50:13;;;;;;;;;;;;;;;13.53;59.45;99915.50;4900127;29;19927;-65
2022/05/01 01:52:46;;;;;;;;;;;;;;;13.52;59.31;99908.66;4900019;29;19959;-65
2022/05/01 01:55:15;;;;;;;;;;;;;;;13.54;59.67;99911.19;4899597;29;19930;-65
2022/05/01 01:57:45;;;;;;;;;;;;;;;13.52;59.08;99907.78;4899819;29;19927;-66
2022/05/01 02:00:14;;;;;;;;;;;;;;;13.52;59.28;99907.78;4899915;29;20026;-65
2022/05/01 02:02:43;;;;;;;;;;;;;;;13.49;59.26;99912.94;4899603;29;19923;-65
2022/05/01 02:05:12;;;;;;;;;;;;;;;13.49;59.31;99912.94;4899420;29;19923;-64
2022/05/01 02:07:41;;;;;;;;;;;;;;;13.47;59.50;99909.53;4899418;29;20010;-65
2022/05/01 02:10:12;;;;;;;;;;;;;;;13.44;59.14;99916.41;4899464;29;19923;-65
2022/05/01 02:12:40;;;;;;;;;;;;;;;13.44;59.09;99915.56;4899334;29;19989;-65
2022/05/01 02:15:09;;;;;;;;;;;;;;;13.42;59.01;99907.88;4899511;29;19928;-65
2022/05/01 02:17:39;;;;;;;;;;;;;;;13.44;59.10;99913.00;4899259;29;19931;-65
2022/05/01 02:20:09;;;;;;;;;;;;;;;13.42;59.34;99907.03;4899228;29;19923;-65
2022/05/01 02:22:40;;;;;;;;;;;;;;;13.36;59.31;99907.09;4899418;29;20258;-65
2022/05/01 02:25:09;;;;;;;;;;;;;;;13.34;59.46;99913.94;4899357;29;19931;-65
2022/05/01 02:27:39;;;;;;;;;;;;;;;13.33;59.50;99913.09;4899107;29;19923;-65
2022/05/01 02:30:09;;;;;;;;;;;;;;;13.34;59.39;99917.34;4898273;29;20354;-65
2022/05/01 02:32:38;;;;;;;;;;;;;;;13.34;59.41;99909.66;4899431;29;19927;-65
2022/05/01 02:35:08;;;;;;;;;;;;;;;13.35;59.50;99903.69;4899060;29;19930;-64
2022/05/01 02:37:36;;;;;;;;;;;;;;;13.37;59.26;99912.19;4898956;29;20014;-65
2022/05/01 02:40:05;;;;;;;;;;;;;;;13.36;59.32;99907.09;4899320;29;19946;-64
2022/05/01 02:42:35;;;;;;;;;;;;;;;13.35;59.32;99900.25;4898778;29;19927;-65
2022/05/01 02:45:06;;;;;;;;;;;;;;;13.35;59.53;99906.25;4898775;29;19930;-65
2022/05/01 02:47:35;;;;;;;;;;;;;;;13.32;59.59;99903.69;4899186;29;19962;-64
2022/05/01 02:50:04;;;;;;;;;;;;;;;13.30;60.07;99902.00;4899139;29;19923;-65
2022/05/01 02:52:33;;;;;;;;;;;;;;;13.27;60.39;99902.00;4899432;29;19989;-64
2022/05/01 02:55:02;;;;;;;;;;;;;;;13.28;60.15;99903.72;4899188;29;19947;-65
2022/05/01 02:57:30;;;;;;;;;;;;;;;13.28;60.03;99899.47;4898690;29;19924;-64
2022/05/01 02:59:59;;;;;;;;;;;;;;;13.28;59.83;99904.59;4899077;29;20297;-65
2022/05/01 03:02:29;;;;;;;;;;;;;;;13.28;59.69;99896.91;4897760;29;20058;-65
2022/05/01 03:04:58;;;;;;;;;;;;;;;13.25;59.80;99904.59;4898727;29;20352;-65
2022/05/01 03:07:26;;;;;;;;;;;;;;;13.25;59.41;99894.34;4899060;29;19965;-64
2022/05/01 03:09:55;;;;;;;;;;;;;;;13.27;59.23;99902.00;4898900;29;19934;-64
2022/05/01 03:12:24;;;;;;;;;;;;;;;13.27;58.98;99897.75;4898641;29;19999;-65
2022/05/01 03:14:53;;;;;;;;;;;;;;;13.24;59.42;99900.34;4898591;29;19972;-65
2022/05/01 03:17:22;;;;;;;;;;;;;;;13.25;59.48;99908.88;4898856;29;20374;-65
2022/05/01 03:22:31;;;;;;;;;;;;;;;13.23;59.32;99908.91;4898799;29;19924;-65
2022/05/01 03:24:59;;;;;;;;;;;;;;;13.23;59.35;99908.91;4899194;29;19924;-65
2022/05/01 03:27:28;;;;;;;;;;;;;;;13.20;59.31;99903.78;4898588;29;20037;-65
2022/05/01 03:32:39;;;;;;;;;;;;;;;13.17;59.89;99908.94;4898438;29;19923;-65
2022/05/01 03:35:09;;;;;;;;;;;;;;;13.18;59.86;99904.66;4898771;29;19924;-65
2022/05/01 03:37:38;;;;;;;;;;;;;;;13.14;60.09;99901.28;4898379;29;20022;-64
2022/05/01 03:40:07;;;;;;;;;;;;;;;13.10;60.03;99909.84;4898428;29;20010;-65
2022/05/01 03:42:37;;;;;;;;;;;;;;;13.10;59.91;99914.97;4898344;29;19934;-64
2022/05/01 03:45:26;;;;;;;;;;;;;;;13.12;60.00;99918.41;4898118;29;19923;-65
2022/05/01 03:47:55;;;;;;;;;;;;;;;13.14;60.00;99916.66;4898456;29;19950;-65
2022/05/01 03:50:26;;;;;;;;;;;;;;;13.17;59.62;99920.91;4898392;29;19954;-65
2022/05/01 03:52:54;;;;;;;;;;;;;;;13.18;59.70;99923.47;4899122;29;19928;-65
2022/05/01 03:55:23;;;;;;;;;;;;;;;13.17;59.79;99911.50;4902101;29;20341;-65
2022/05/01 03:57:52;;;;;;;;;;;;;;;13.17;59.86;99916.63;4901646;29;19923;-64
2022/05/01 04:00:21;;;;;;;;;;;;;;;13.18;60.17;99927.72;4901732;29;20010;-65
2022/05/01 04:02:49;;;;;;;;;;;;;;;13.16;59.91;99909.81;4901600;29;19923;-65
2022/05/01 04:05:18;;;;;;;;;;;;;;;13.16;60.16;99920.06;4901626;29;19923;-64
2022/05/01 04:07:48;;;;;;;;;;;;;;;13.16;59.88;99925.19;4901795;29;20281;-65
2022/05/01 04:10:17;;;;;;;;;;;;;;;13.16;60.16;99925.19;4902103;29;20321;-65
2022/05/01 04:12:45;;;;;;;;;;;;;;;13.17;60.26;99921.75;4901484;29;20400;-64
2022/05/01 04:15:15;;;;;;;;;;;;;;;13.17;60.07;99924.31;4901469;29;19930;-64
2022/05/01 04:17:44;;;;;;;;;;;;;;;13.14;59.88;99919.22;4901697;29;19965;-65
2022/05/01 04:20:13;;;;;;;;;;;;;;;13.20;60.14;99920.88;4901557;29;19924;-64
2022/05/01 04:22:42;;;;;;;;;;;;;;;13.22;60.03;99925.13;4901354;29;20014;-64
2022/05/01 04:25:17;;;;;;;;;;;;;;;13.23;60.54;99931.97;4901600;29;19953;-64
2022/05/01 04:27:46;;;;;;;;;;;;;;;13.25;60.42;99929.38;4901914;29;19923;-64
2022/05/01 04:30:15;;;;;;;;;;;;;;;13.27;60.58;99938.75;4901532;29;19994;-64
2022/05/01 04:32:48;;;;;;;;;;;;;;;13.25;60.27;99939.63;4901479;29;19930;-64
2022/05/01 04:35:25;;;;;;;;;;;;;;;13.20;60.55;99936.25;4901093;29;20301;-65
2022/05/01 04:37:54;;;;;;;;;;;;;;;13.19;60.39;99945.69;4901086;29;19971;-65
2022/05/01 04:40:24;;;;;;;;;;;;;;;13.21;60.63;99943.94;4901037;29;19967;-65
2022/05/01 04:42:53;;;;;;;;;;;;;;;13.21;60.68;99948.22;4901004;29;19975;-65
2022/05/01 04:45:22;;;;;;;;;;;;;;;13.24;60.49;99943.94;4900954;29;19924;-65
2022/05/01 04:47:51;;;;;;;;;;;;;;;13.26;60.69;99943.91;4900870;29;19978;-65
2022/05/01 04:50:19;;;;;;;;;;;;;;;13.26;60.87;99937.09;4901063;29;20437;-65
2022/05/01 04:52:48;;;;;;;;;;;;;;;13.30;60.96;99938.75;4900794;29;20006;-65
2022/05/01 04:55:19;;;;;;;;;;;;;;;13.32;60.88;99941.28;4900766;29;20422;-64
2022/05/01 04:57:49;;;;;;;;;;;;;;;13.32;60.61;99936.16;4901404;29;19931;-64
2022/05/01 05:00:20;;;;;;;;;;;;;;;13.26;60.24;99937.09;4900900;29;19924;-64
2022/05/01 05:02:50;;;;;;;;;;;;;;;13.31;60.35;99935.34;4900750;29;19930;-64
2022/05/01 05:05:19;;;;;;;;;;;;;;;13.38;60.13;99942.13;4900512;29;20018;-64
2022/05/01 05:07:48;;;;;;;;;;;;;;;13.39;59.69;99932.69;4900519;29;19991;-64
2022/05/01 05:10:16;;;;;;;;;;;;;;;13.44;59.64;99942.06;4900756;29;19924;-64
2022/05/01 05:12:45;;;;;;;;;;;;;;;13.51;59.64;99937.72;4900213;29;19923;-64
2022/05/01 05:15:16;;;;;;;;;;;;;;;13.53;59.59;99935.16;4900409;29;19923;-64
2022/05/01 05:17:45;;;;;;;;;;;;;;;13.53;59.55;99940.28;4900719;29;19979;-64
2022/05/01 05:20:13;;;;;;;;;;;;;;;13.53;59.63;99935.16;4880344;29;20282;-64
2022/05/01 05:22:42;;;;;;;;;;;;;;;13.55;59.65;99933.41;4882216;29;19923;-64
2022/05/01 05:25:11;;;;;;;;;;;;;;;13.54;59.86;99934.28;4881478;29;19992;-64
2022/05/01 05:27:40;;;;;;;;;;;;;;;13.57;60.01;99939.38;4881507;29;20421;-64
2022/05/01 05:30:09;;;;;;;;;;;;;;;13.60;59.85;99944.50;4881626;29;19924;-64
2022/05/01 05:32:40;;;;;;;;;;;;;;;13.60;59.79;99947.06;4881376;29;19924;-65
2022/05/01 05:35:09;;;;;;;;;;;;;;;13.63;60.20;99944.47;4881227;29;20370;-65
2022/05/01 05:37:38;;;;;;;;;;;;;;;13.62;59.87;99948.75;4881874;29;19923;-64
2022/05/01 05:40:08;;;;;;;;;;;;;;;13.66;59.87;99947.84;4881135;29;19979;-64
2022/05/01 05:42:36;;;;;;;;;;;;;;;13.68;59.74;99955.53;4881421;29;19924;-64
2022/05/01 05:45:06;;;;;;;;;;;;;;;13.69;59.67;99952.09;4881187;29;19923;-64
2022/05/01 05:47:34;;;;;;;;;;;;;;;13.70;59.76;99954.63;4881126;29;19949;-64
2022/05/01 05:50:05;;;;;;;;;;;;;;;13.74;59.63;99961.47;4880990;29;19924;-64
2022/05/01 05:52:33;;;;;;;;;;;;;;;13.77;59.73;99963.16;4881320;29;20030;-64
2022/05/01 05:55:02;;;;;;;;;;;;;;;13.84;59.93;99964.81;4881289;29;19923;-64
2022/05/01 05:57:31;;;;;;;;;;;;;;;13.88;59.44;99969.03;4881248;29;20034;-64
2022/05/01 06:00:00;;;;;;;;;;;;;;;13.94;59.49;99963.84;4880868;29;20367;-64
2022/05/01 06:02:39;;;;;;;;;;;;;;;13.92;59.01;99958.72;4880901;29;19975;-64
2022/05/01 06:05:10;;;;;;;;;;;;;;;13.97;59.00;99958.66;4880621;29;19927;-65
2022/05/01 06:07:39;;;;;;;;;;;;;;;14.00;59.19;99959.50;4880894;29;19924;-65
2022/05/01 06:10:08;;;;;;;;;;;;;;;14.07;58.95;99961.13;4881121;29;19927;-64
2022/05/01 06:12:41;;;;;;;;;;;;;;;14.18;58.87;99963.56;4880415;29;19923;-66
2022/05/01 06:15:10;;;;;;;;;;;;;;;14.15;59.08;99958.50;4880522;29;20003;-65
2022/05/01 06:17:39;;;;;;;;;;;;;;;14.23;59.03;99966.94;4880587;29;19959;-64
2022/05/01 06:20:08;;;;;;;;;;;;;;;14.31;59.07;99965.19;4880798;29;19979;-65
2022/05/01 06:22:39;;;;;;;;;;;;;;;14.36;58.92;99965.13;4880263;29;20362;-64
2022/05/01 06:25:08;;;;;;;;;;;;;;;14.39;58.45;99968.53;4881028;29;20357;-64
2022/05/01 06:27:36;;;;;;;;;;;;;;;14.46;58.54;99970.16;4880795;29;20386;-65
2022/05/01 06:30:07;;;;;;;;;;;;;;;14.54;58.39;99965.75;4880733;29;19996;-65
2022/05/01 06:32:36;;;;;;;;;;;;;;;14.72;58.14;99967.25;4880379;29;19924;-64
2022/05/01 06:35:05;;;;;;;;;;;;;;;14.90;58.08;99966.16;4880581;29;20306;-65
2022/05/01 06:37:35;;;;;;;;;;;;;;;15.01;58.08;99969.44;4880321;29;19972;-65
2022/05/01 06:40:06;;;;;;;;;;;;;;;15.19;58.31;99966.59;4880551;29;20014;-65
2022/05/01 06:42:35;;;;;;;;;;;;;;;15.33;57.96;99964.69;4880597;29;20381;-64
2022/05/01 06:45:05;;;;;;;;;;;;;;;15.46;57.45;99963.63;4880370;29;20350;-65
2022/05/01 06:47:33;;;;;;;;;;;;;;;15.48;57.00;99961.06;4880192;29;19930;-65
2022/05/01 06:50:02;;;;;;;;;;;;;;;15.45;56.65;99967.09;4880451;29;20247;-65
2022/05/01 06:52:31;;;;;;;;;;;;;;;15.47;56.91;99975.63;4880405;29;19968;-64
2022/05/01 06:55:00;;;;;;;;;;;;;;;15.48;57.31;99967.03;4880047;29;19927;-64
2022/05/01 06:57:30;;;;;;;;;;;;;;;15.65;57.40;99969.31;4880170;29;20014;-65
2022/05/01 06:59:59;;;;;;;;;;;;;;;15.83;57.25;99969.88;4880521;29;19955;-65
2022/05/01 07:02:28;;;;;;;;;;;;;;;15.95;57.29;99969.66;4879921;29;19971;-65
2022/05/01 07:04:57;;;;;;;;;;;;;;;16.14;57.31;99974.47;4879885;29;19970;-65
2022/05/01 07:07:25;;;;;;;;;;;;;;;16.21;56.62;99970.91;4879968;29;20022;-65
2022/05/01 07:09:54;;;;;;;;;;;;;;;16.26;55.57;99975.09;4880224;29;20385;-65
2022/05/01 07:12:23;;;;;;;;;;;;;;;16.43;54.70;99972.19;4880113;29;19924;-65
2022/05/01 07:14:53;;;;;;;;;;;;;;;16.44;53.44;99969.56;4880112;29;19924;-65
2022/05/01 07:17:21;;;;;;;;;;;;;;;16.54;53.24;99975.41;4880693;29;20030;-65
2022/05/01 07:19:50;;;;;;;;;;;;;;;16.71;53.61;99978.50;4880170;29;19928;-65
2022/05/01 07:22:19;;;;;;;;;;;;;;;16.88;53.20;99981.59;4879967;29;19924;-65
2022/05/01 07:24:47;;;;;;;;;;;;;;;17.03;53.45;99980.41;4880068;29;19924;-65
2022/05/01 07:27:17;;;;;;;;;;;;;;;17.21;53.44;99975.66;4879815;29;20014;-65
2022/05/01 07:29:46;;;;;;;;;;;;;;;17.26;52.41;99973.84;4883810;29;19924;-65
2022/05/01 07:32:17;;;;;;;;;;;;;;;17.21;51.88;99975.66;4883398;29;19927;-65
2022/05/01 07:34:46;;;;;;;;;;;;;;;17.31;51.72;99972.00;4883864;29;19924;-65
2022/05/01 07:37:15;;;;;;;;;;;;;;;17.30;51.27;99975.44;4883318;29;19980;-65
2022/05/01 07:39:44;;;;;;;;;;;;;;;17.38;51.21;99977.84;4883987;29;20034;-65
2022/05/01 07:42:13;;;;;;;;;;;;;;;17.51;51.38;99973.25;4883337;29;20006;-66
2022/05/01 07:44:42;;;;;;;;;;;;;;;17.53;50.61;99971.53;4883152;29;20378;-65
2022/05/01 07:47:11;;;;;;;;;;;;;;;17.59;49.95;99971.38;4884103;29;19983;-65
2022/05/01 07:49:41;;;;;;;;;;;;;;;17.65;49.97;99966.06;4883486;29;19976;-65
2022/05/01 07:52:10;;;;;;;;;;;;;;;17.58;49.38;99961.94;4883161;29;19976;-65
2022/05/01 07:54:39;;;;;;;;;;;;;;;17.65;49.08;99959.16;4883388;29;19924;-65
2022/05/01 07:57:08;;;;;;;;;;;;;;;17.81;48.66;99962.19;4881889;29;19995;-64
2022/05/01 07:59:37;;;;;;;;;;;;;;;18.00;48.29;99958.25;4883393;29;19924;-65
2022/05/01 08:02:06;;;;;;;;;;;;;;;18.19;47.90;99959.44;4883123;29;19968;-65
2022/05/01 08:04:34;;;;;;;;;;;;;;;18.29;47.51;99960.91;4882961;29;19923;-65
2022/05/01 08:07:05;;;;;;;;;;;;;;;18.45;47.12;99956.16;4882733;29;19927;-65
2022/05/01 08:09:33;;;;;;;;;;;;;;;18.66;46.78;99956.44;4883256;29;19931;-65
2022/05/01 08:12:02;;;;;;;;;;;;;;;18.78;46.54;99950.03;4882895;29;20434;-66
2022/05/01 08:14:30;;;;;;;;;;;;;;;18.80;46.38;99950.00;4882851;29;19934;-65
2022/05/01 08:16:59;;;;;;;;;;;;;;;18.81;46.09;99949.13;4883055;29;19924;-66
2022/05/01 08:22:08;;;;;;;;;;;;;;;18.75;45.45;99944.97;4881758;29;19924;-65
2022/05/01 08:24:37;;;;;;;;;;;;;;;18.83;45.46;99936.97;4882926;29;19923;-65
2022/05/01 08:27:07;;;;;;;;;;;;;;;18.93;45.82;99938.41;4882612;29;20005;-65
2022/05/01 08:29:37;;;;;;;;;;;;;;;18.91;45.36;99935.00;4882842;29;19987;-65
2022/05/01 08:32:06;;;;;;;;;;;;;;;18.90;45.21;99933.31;4882493;29;20010;-65
2022/05/01 08:34:35;;;;;;;;;;;;;;;18.91;44.82;99935.84;4882474;29;19976;-65
2022/05/01 08:37:04;;;;;;;;;;;;;;;18.84;44.25;99933.47;4882264;29;19928;-65
2022/05/01 08:39:34;;;;;;;;;;;;;;;18.80;43.36;99926.72;4881970;29;19935;-65
2022/05/01 08:42:04;;;;;;;;;;;;;;;18.87;43.22;99939.41;4882430;29;19956;-65
2022/05/01 08:44:37;;;;;;;;;;;;;;;19.02;42.71;99932.94;4882597;29;19923;-65
2022/05/01 08:47:12;;;;;;;;;;;;;;;19.38;43.41;99926.63;4882491;29;19923;-66
2022/05/01 08:49:42;;;;;;;;;;;;;;;19.69;41.80;99929.91;4882151;29;19928;-65
2022/05/01 08:52:12;;;;;;;;;;;;;;;20.00;41.12;99927.94;4882138;29;19928;-65
2022/05/01 08:54:42;;;;;;;;;;;;;;;20.15;40.13;99920.53;4881148;29;20295;-65
2022/05/01 08:57:12;;;;;;;;;;;;;;;20.42;39.99;99924.75;4882033;29;19927;-66
2022/05/01 08:59:41;;;;;;;;;;;;;;;20.62;39.58;99914.44;4882030;29;19978;-65
2022/05/01 09:02:12;;;;;;;;;;;;;;;20.59;39.58;99919.75;4881940;29;19951;-65
2022/05/01 09:04:42;;;;;;;;;;;;;;;20.52;40.52;99911.38;4881947;29;19930;-65
2022/05/01 09:07:10;;;;;;;;;;;;;;;20.32;40.50;99923.38;4881919;29;19967;-65
2022/05/01 09:09:39;;;;;;;;;;;;;;;20.16;40.92;99917.00;4882604;29;20251;-64
2022/05/01 09:14:49;;;;;;;;;;;;;;;20.37;41.29;99918.88;4881954;29;19924;-65
2022/05/01 09:17:19;;;;;;;;;;;;;;;20.52;40.20;99916.56;4881706;29;19923;-65
2022/05/01 09:19:49;;;;;;;;;;;;;;;20.81;40.54;99917.19;4881870;29;19927;-66
2022/05/01 09:22:20;;;;;;;;;;;;;;;20.94;41.07;99919.28;4881959;29;19951;-65
2022/05/01 09:24:53;;;;;;;;;;;;;;;20.87;41.13;99919.56;4881592;29;19924;-65
2022/05/01 09:27:28;;;;;;;;;;;;;;;20.52;40.90;99915.69;4881344;29;19930;-64
2022/05/01 09:30:08;;;;;;;;;;;;;;;20.30;41.33;99917.41;4882427;29;20366;-64
2022/05/01 09:32:37;;;;;;;;;;;;;;;20.04;42.81;99918.28;4881752;29;20060;-65
2022/05/01 09:35:07;;;;;;;;;;;;;;;19.81;42.90;99916.53;4881741;29;19931;-64
2022/05/01 09:37:35;;;;;;;;;;;;;;;19.71;41.69;99915.16;4881594;29;19928;-64
2022/05/01 09:40:04;;;;;;;;;;;;;;;19.73;41.22;99902.13;4881516;29;20331;-64
2022/05/01 09:42:36;;;;;;;;;;;;;;;19.70;40.91;99897.91;4881606;29;20247;-64
2022/05/01 09:45:06;;;;;;;;;;;;;;;19.75;40.55;99901.19;4881113;29;20023;-65
2022/05/01 09:47:35;;;;;;;;;;;;;;;19.75;39.88;99898.59;4881088;29;19930;-64
2022/05/01 09:50:05;;;;;;;;;;;;;;;19.82;38.99;99901.84;4880847;29;20363;-64
2022/05/01 09:52:45;;;;;;;;;;;;;;;19.85;38.87;99892.19;4880635;29;20014;-64
2022/05/01 09:55:13;;;;;;;;;;;;;;;19.94;38.59;99897.03;4881323;29;20433;-64
2022/05/01 09:57:43;;;;;;;;;;;;;;;19.88;40.54;99896.44;4880815;29;20022;-64
2022/05/01 10:00:13;;;;;;;;;;;;;;;19.92;42.76;99892.81;4881294;29;20278;-64
2022/05/01 10:02:41;;;;;;;;;;;;;;;20.06;41.87;99891.44;4880809;29;19935;-64
2022/05/01 10:05:11;;;;;;;;;;;;;;;20.34;41.01;99895.66;4880821;29;20015;-64
2022/05/01 10:07:40;;;;;;;;;;;;;;;20.30;39.97;99888.91;4880811;29;19924;-65
2022/05/01 10:10:09;;;;;;;;;;;;;;;20.36;39.74;99891.25;4880745;29;19927;-65
2022/05/01 10:12:42;;;;;;;;;;;;;;;20.54;40.21;99882.75;4880453;29;20367;-64
2022/05/01 10:15:14;;;;;;;;;;;;;;;20.72;40.16;99892.44;4880573;29;19923;-65
2022/05/01 10:17:43;;;;;;;;;;;;;;;20.71;39.77;99885.56;4880987;29;20022;-65
2022/05/01 10:20:13;;;;;;;;;;;;;;;20.75;39.25;99881.97;4880434;29;19928;-65
2022/05/01 10:22:42;;;;;;;;;;;;;;;20.80;39.18;99885.22;4880540;29;19932;-65
2022/05/01 10:25:12;;;;;;;;;;;;;;;20.92;39.44;99883.91;4880516;29;20332;-66
2022/05/01 10:27:44;;;;;;;;;;;;;;;21.03;40.00;99874.78;4880288;29;19931;-64
2022/05/01 10:33:11;;;;;;;;;;;;;;;20.86;41.08;99871.16;4880630;29;19924;-65
2022/05/01 10:35:53;;;;;;;;;;;;;;;20.75;42.18;99876.78;4880612;29;19924;-64
2022/05/01 10:38:28;;;;;;;;;;;;;;;20.73;41.73;99872.56;4880383;29;19924;-65
2022/05/01 10:40:58;;;;;;;;;;;;;;;20.76;40.91;99868.06;4880214;29;19955;-65
2022/05/01 10:43:29;;;;;;;;;;;;;;;20.99;41.43;99855.06;4880379;29;19993;-64
2022/05/01 10:46:00;;;;;;;;;;;;;;;21.24;42.05;99857.50;4880500;29;19956;-65
2022/05/01 10:48:30;;;;;;;;;;;;;;;21.13;41.37;99852.75;4880284;29;19924;-64
2022/05/01 10:51:13;;;;;;;;;;;;;;;21.09;41.05;99855.56;4880579;29;19924;-64
2022/05/01 10:53:42;;;;;;;;;;;;;;;21.10;40.73;99847.69;4879924;29;19924;-65
2022/05/01 10:56:22;;;;;;;;;;;;;;;21.09;39.25;99850.38;4880468;29;19958;-65
2022/05/01 10:58:50;;;;;;;;;;;;;;;21.19;38.49;99849.06;4880410;29;19923;-65
2022/05/01 11:01:46;;;;;;;;;;;;;;;21.40;38.17;99845.59;4880154;29;19924;-65
2022/05/01 11:04:20;;;;;;;;;;;;;;;21.52;39.00;99839.03;4883793;29;19924;-65
2022/05/01 11:06:50;;;;;;;;;;;;;;;21.80;38.48;99839.50;4883980;29;19924;-65
2022/05/01 11:09:19;;;;;;;;;;;;;;;22.16;38.34;99843.09;4883973;29;19923;-65
2022/05/01 11:11:48;;;;;;;;;;;;;;;22.53;38.16;99842.25;4884401;29;19952;-65
2022/05/01 11:14:17;;;;;;;;;;;;;;;22.45;36.67;99840.00;4883908;29;19939;-64
2022/05/01 11:16:56;;;;;;;;;;;;;;;22.04;36.19;99833.25;4884145;29;19932;-64
2022/05/01 11:19:25;;;;;;;;;;;;;;;21.97;37.63;99837.03;4884008;29;19930;-65
2022/05/01 11:21:55;;;;;;;;;;;;;;;21.97;36.70;99837.03;4884106;29;19928;-65
2022/05/01 11:24:41;;;;;;;;;;;;;;;22.19;36.34;99832.56;4883697;29;20022;-65
2022/05/01 11:27:13;;;;;;;;;;;;;;;22.44;34.99;99825.31;4883541;29;19927;-64
2022/05/01 11:29:57;;;;;;;;;;;;;;;22.69;34.24;99817.22;4884230;29;19974;-65
2022/05/01 11:32:27;;;;;;;;;;;;;;;22.86;34.34;99819.00;4883388;29;19923;-65
2022/05/01 11:34:57;;;;;;;;;;;;;;;23.06;34.30;99816.28;4883833;29;20405;-65
2022/05/01 11:37:28;;;;;;;;;;;;;;;23.06;33.09;99813.69;4883402;29;19971;-64
2022/05/01 11:40:07;;;;;;;;;;;;;;;22.96;32.62;99810.66;4883447;29;19931;-65
2022/05/01 11:42:37;;;;;;;;;;;;;;;23.11;33.24;99809.06;4883612;29;20298;-65
2022/05/01 11:45:08;;;;;;;;;;;;;;;23.19;33.57;99801.72;4883489;29;20435;-65
2022/05/01 11:47:40;;;;;;;;;;;;;;;23.26;32.58;99808.31;4883259;29;19924;-65
2022/05/01 11:50:18;;;;;;;;;;;;;;;23.52;32.65;99805.25;4883186;29;19930;-65
2022/05/01 11:52:51;;;;;;;;;;;;;;;23.68;32.24;99800.91;4883286;29;19970;-65
2022/05/01 11:55:20;;;;;;;;;;;;;;;23.48;31.90;99798.50;4883113;29;19955;-66
2022/05/01 12:03:17;;;;;;;;;;;;;;;22.76;34.38;99791.75;4882847;29;19930;-64
2022/05/01 12:05:46;;;;;;;;;;;;;;;22.67;33.77;99786.06;4882978;29;20015;-65
2022/05/01 12:08:15;;;;;;;;;;;;;;;22.39;33.50;99783.06;4882764;29;20006;-65
2022/05/01 12:10:45;;;;;;;;;;;;;;;22.22;33.83;99784.78;4883204;29;20302;-64
2022/05/01 12:13:17;;;;;;;;;;;;;;;22.29;33.81;99781.78;4882708;29;20483;-64
2022/05/01 12:15:46;;;;;;;;;;;;;;;22.44;33.48;99786.28;4882583;29;19923;-64
2022/05/01 12:18:20;;;;;;;;;;;;;;;22.47;33.76;99775.75;4883149;29;19953;-64
2022/05/01 12:20:48;;;;;;;;;;;;;;;22.58;33.96;99773.47;4882573;29;19931;-65
2022/05/01 12:23:18;;;;;;;;;;;;;;;22.58;33.58;99770.00;4882913;29;20324;-65
2022/05/01 12:25:49;;;;;;;;;;;;;;;22.70;33.53;99766.03;4883212;29;19972;-64
2022/05/01 12:28:20;;;;;;;;;;;;;;;22.76;32.77;99765.72;4882437;29;19948;-64
2022/05/01 12:30:53;;;;;;;;;;;;;;;23.01;32.91;99769.63;4882570;29;19924;-64
2022/05/01 12:33:25;;;;;;;;;;;;;;;23.10;32.56;99770.94;4882798;29;19924;-65
2022/05/01 12:35:55;;;;;;;;;;;;;;;23.36;32.03;99770.47;4882494;29;19979;-65
2022/05/01 12:38:26;;;;;;;;;;;;;;;23.42;30.90;99767.53;4882603;29;20016;-65
2022/05/01 12:46:23;;;;;;;;;;;;;;;24.06;31.66;99761.53;4882264;29;20014;-65
2022/05/01 12:48:53;;;;;;;;;;;;;;;24.02;31.56;99753.88;4882175;29;19927;-65
2022/05/01 12:51:23;;;;;;;;;;;;;;;23.58;31.82;99758.03;4882205;29;20397;-65
2022/05/01 12:54:08;;;;;;;;;;;;;;;23.32;32.15;99758.50;4882121;29;20293;-65
2022/05/01 12:56:36;;;;;;;;;;;;;;;23.24;33.90;99758.06;4882147;29;19947;-65
2022/05/01 12:59:16;;;;;;;;;;;;;;;23.05;34.24;99746.88;4881974;29;19923;-65
2022/05/01 13:01:51;;;;;;;;;;;;;;;22.82;34.18;99744.59;4882357;29;19928;-65
2022/05/01 13:04:25;;;;;;;;;;;;;;;22.67;35.65;99744.41;4882273;29;19987;-65
2022/05/01 13:06:55;;;;;;;;;;;;;;;22.50;35.96;99739.19;4881812;29;19967;-65
2022/05/01 13:09:24;;;;;;;;;;;;;;;22.24;35.54;99741.34;4882733;29;19934;-64
2022/05/01 13:12:00;;;;;;;;;;;;;;;22.10;35.35;99741.97;4881982;29;20351;-64
2022/05/01 13:14:33;;;;;;;;;;;;;;;21.98;35.50;99737.34;4881706;29;20286;-64
2022/05/01 13:17:08;;;;;;;;;;;;;;;21.71;34.33;99738.59;4881698;29;20019;-64
2022/05/01 13:19:39;;;;;;;;;;;;;;;21.73;35.32;99735.00;4881685;29;19930;-65
2022/05/01 13:22:08;;;;;;;;;;;;;;;21.81;34.92;99724.25;4882042;29;19923;-65
2022/05/01 13:24:38;;;;;;;;;;;;;;;21.89;36.14;99724.75;4881761;29;20057;-64
2022/05/01 13:27:08;;;;;;;;;;;;;;;21.94;34.91;99722.81;4881106;29;20362;-65
2022/05/01 13:29:38;;;;;;;;;;;;;;;21.90;34.43;99721.28;4881960;29;19989;-65
2022/05/01 13:32:08;;;;;;;;;;;;;;;21.78;33.73;99716.59;4881840;29;20050;-65
2022/05/01 13:34:39;;;;;;;;;;;;;;;21.72;34.30;99716.88;4881367;29;20350;-65
2022/05/01 13:37:08;;;;;;;;;;;;;;;21.57;34.00;99717.56;4881596;29;19924;-64